createdAt,value
2022-12-25T00:03:08.742Z,1006.343
2022-12-25T00:23:07.803Z,1006.499
2022-12-25T00:43:07.698Z,1006.657
2022-12-25T01:03:08.745Z,1006.683
2022-12-25T01:23:07.702Z,1006.722
2022-12-25T01:43:07.620Z,1006.669
2022-12-25T02:03:08.599Z,1006.617
2022-12-25T02:23:07.673Z,1006.647
2022-12-25T02:43:07.858Z,1006.516
2022-12-25T03:03:09.026Z,1006.579
2022-12-25T03:23:08.132Z,1006.604
2022-12-25T03:43:08.132Z,1006.533
2022-12-25T04:03:08.177Z,1006.322
2022-12-25T04:23:08.247Z,1006.022
2022-12-25T04:43:08.205Z,1005.849
2022-12-25T05:03:09.555Z,1005.869
2022-12-25T05:23:07.631Z,1005.998
2022-12-25T05:43:07.769Z,1005.84
2022-12-25T06:03:09.225Z,1005.747
2022-12-25T06:23:07.476Z,1005.671
2022-12-25T06:43:07.776Z,1005.612
2022-12-25T07:03:08.743Z,1005.372
2022-12-25T07:23:07.692Z,1004.987
2022-12-25T07:43:07.667Z,1005.083
2022-12-25T08:03:09.630Z,1004.706
2022-12-25T08:23:07.555Z,1005.15
2022-12-25T08:43:07.481Z,1004.755
2022-12-25T09:03:08.846Z,1004.729
2022-12-25T09:23:15.003Z,1004.82
2022-12-25T09:43:07.923Z,1004.526
2022-12-25T10:03:09.574Z,1004.231
2022-12-25T10:23:07.563Z,1004.083
2022-12-25T10:43:07.546Z,1004.404
2022-12-25T11:03:08.912Z,1003.915
2022-12-25T11:23:07.971Z,1003.926
2022-12-25T11:43:09.400Z,1003.365
2022-12-25T12:03:08.761Z,1002.871
2022-12-25T12:23:07.748Z,1002.578
2022-12-25T12:43:07.881Z,1002.246
2022-12-25T13:03:09.234Z,1001.516
2022-12-25T13:23:07.175Z,1001.387
2022-12-25T13:43:07.293Z,1001.346
2022-12-25T14:03:08.521Z,1001.001
2022-12-25T14:23:07.626Z,1000.759
2022-12-25T14:43:07.739Z,1000.628
2022-12-25T15:03:09.227Z,1000.524
2022-12-25T15:23:21.623Z,1000.559
2022-12-25T15:43:41.841Z,1000.365
2022-12-25T16:03:09.738Z,1000.284
2022-12-25T16:23:08.033Z,1000.15
2022-12-25T16:43:08.171Z,999.982
2022-12-25T17:03:09.763Z,999.651
2022-12-25T17:23:07.704Z,999.669
2022-12-25T17:43:07.717Z,999.458
2022-12-25T18:03:13.214Z,999.31
2022-12-25T18:23:07.618Z,999.353
2022-12-25T18:43:07.865Z,999.352
2022-12-25T19:03:09.319Z,999.372
2022-12-25T19:23:07.312Z,999.24
2022-12-25T19:43:07.510Z,999.212
2022-12-25T20:03:08.902Z,999.457
2022-12-25T20:23:08.021Z,999.41
2022-12-25T20:43:08.153Z,999.629
2022-12-25T21:03:09.791Z,999.705
2022-12-25T21:23:08.067Z,999.837
2022-12-25T21:43:07.413Z,999.869
2022-12-25T22:03:08.858Z,999.846
2022-12-25T22:23:08.157Z,999.954
2022-12-25T22:43:07.160Z,999.995
2022-12-25T23:03:08.880Z,1000.397
2022-12-25T23:23:07.791Z,1000.171
2022-12-25T23:43:07.602Z,999.955
